createdAt,value
2022-11-30T00:01:25.309Z,68.42
2022-11-30T00:03:54.902Z,68.85
2022-11-30T00:06:23.931Z,67.09
2022-11-30T00:08:58.189Z,67.29
2022-11-30T00:11:28.770Z,68.01
2022-11-30T00:13:57.103Z,67.79
2022-11-30T00:16:25.122Z,68.81
2022-11-30T00:18:53.591Z,68.29
2022-11-30T00:21:22.202Z,67.86
2022-11-30T00:23:50.190Z,68.49
2022-11-30T00:26:19.627Z,68.35
2022-11-30T00:28:48.006Z,66.96
2022-11-30T00:31:17.458Z,67.85
2022-11-30T00:33:45.929Z,67.86
2022-11-30T00:36:14.763Z,66.73
2022-11-30T00:38:43.745Z,66.88
2022-11-30T00:41:12.540Z,66.71
2022-11-30T00:43:40.592Z,65.40
2022-11-30T00:46:11.919Z,64.86
2022-11-30T00:48:41.331Z,65.45
2022-11-30T00:51:10.820Z,66.51
2022-11-30T00:53:39.414Z,66.49
2022-11-30T00:56:08.871Z,64.09
2022-11-30T00:58:37.092Z,63.63
2022-11-30T01:01:05.566Z,63.79
2022-11-30T01:03:34.560Z,63.92
2022-11-30T01:06:07.044Z,63.68
2022-11-30T01:08:35.865Z,62.17
2022-11-30T01:11:13.251Z,62.98
2022-11-30T01:13:41.821Z,63.05
2022-11-30T01:16:12.913Z,61.56
2022-11-30T01:18:41.841Z,62.58
2022-11-30T01:21:13.862Z,62.43
2022-11-30T01:23:42.223Z,62.50
2022-11-30T01:26:10.731Z,64.32
2022-11-30T01:28:41.083Z,62.97
2022-11-30T01:31:11.319Z,63.41
2022-11-30T01:33:39.815Z,64.10
2022-11-30T01:36:12.882Z,62.51
2022-11-30T01:38:43.290Z,63.37
2022-11-30T01:41:13.232Z,62.96
2022-11-30T01:43:44.892Z,62.43
2022-11-30T01:46:27.762Z,61.34
2022-11-30T01:49:05.481Z,61.56
2022-11-30T01:51:52.371Z,61.06
2022-11-30T01:54:24.511Z,60.65
2022-11-30T01:57:05.016Z,60.70
2022-11-30T01:59:33.311Z,60.59
2022-11-30T02:02:01.242Z,60.33
2022-11-30T02:04:31.768Z,59.49
2022-11-30T02:07:00.451Z,60.58
2022-11-30T02:09:29.511Z,59.54
2022-11-30T02:11:58.039Z,59.69
2022-11-30T02:14:40.251Z,59.98
2022-11-30T02:17:21.872Z,59.53
2022-11-30T02:19:59.513Z,59.90
2022-11-30T02:22:54.520Z,59.04
2022-11-30T02:25:37.353Z,59.39
2022-11-30T02:28:28.042Z,58.76
2022-11-30T02:30:58.771Z,58.24
2022-11-30T02:33:29.584Z,58.69
2022-11-30T02:35:58.871Z,58.62
2022-11-30T02:38:27.872Z,59.32
2022-11-30T02:40:56.040Z,57.37
2022-11-30T02:43:26.536Z,57.89
2022-11-30T02:45:58.058Z,58.04
2022-11-30T02:48:44.688Z,57.17
2022-11-30T02:51:17.951Z,56.90
2022-11-30T02:53:46.442Z,56.65
2022-11-30T02:56:15.025Z,57.42
2022-11-30T02:58:43.202Z,57.22
2022-11-30T03:01:13.606Z,57.42
2022-11-30T03:03:41.976Z,57.01
2022-11-30T03:06:09.881Z,56.73
2022-11-30T03:08:37.970Z,57.03
2022-11-30T03:11:06.572Z,57.24
2022-11-30T03:13:34.985Z,56.52
2022-11-30T03:16:10.679Z,56.23
2022-11-30T03:18:39.612Z,57.09
2022-11-30T03:21:08.704Z,56.23
2022-11-30T03:23:37.512Z,55.76
2022-11-30T03:26:06.512Z,55.74
2022-11-30T03:28:35.976Z,56.62
2022-11-30T03:31:04.512Z,55.84
2022-11-30T03:33:33.165Z,56.16
2022-11-30T03:36:02.613Z,57.40
2022-11-30T03:38:30.773Z,56.56
2022-11-30T03:41:08.051Z,57.03
2022-11-30T03:43:36.102Z,56.93
2022-11-30T03:46:04.654Z,56.92
2022-11-30T03:48:32.931Z,56.54
2022-11-30T03:51:00.991Z,57.53
2022-11-30T03:53:29.262Z,56.25
2022-11-30T03:55:59.692Z,57.02
2022-11-30T03:58:28.072Z,56.55
2022-11-30T04:01:00.591Z,58.35
2022-11-30T04:03:29.694Z,56.79
2022-11-30T04:05:58.200Z,57.26
2022-11-30T04:08:27.032Z,57.57
2022-11-30T04:10:56.650Z,58.01
2022-11-30T04:13:25.541Z,56.87
2022-11-30T04:15:54.308Z,57.57
2022-11-30T04:18:24.222Z,57.29
2022-11-30T04:20:56.643Z,56.64
2022-11-30T04:23:26.393Z,56.90
2022-11-30T04:25:54.320Z,55.99
2022-11-30T04:28:22.265Z,55.68
2022-11-30T04:30:50.697Z,55.73
2022-11-30T04:33:18.612Z,55.75
2022-11-30T04:35:49.391Z,56.16
2022-11-30T04:38:17.730Z,55.65
2022-11-30T04:40:45.674Z,55.31
2022-11-30T04:43:13.992Z,55.94
2022-11-30T04:45:44.620Z,56.42
2022-11-30T04:48:13.261Z,55.85
2022-11-30T04:50:41.415Z,54.82
2022-11-30T04:53:09.963Z,55.80
2022-11-30T04:55:38.672Z,56.49
2022-11-30T04:58:07.231Z,56.38
2022-11-30T05:00:36.146Z,54.38
2022-11-30T05:03:04.284Z,55.77
2022-11-30T05:05:32.280Z,56.01
2022-11-30T05:08:01.462Z,55.63
2022-11-30T05:10:30.351Z,55.72
2022-11-30T05:12:58.520Z,55.26
2022-11-30T05:15:26.842Z,54.99
2022-11-30T05:17:58.953Z,55.11
2022-11-30T05:20:28.620Z,55.22
2022-11-30T05:22:57.641Z,55.47
2022-11-30T05:25:25.654Z,54.19
2022-11-30T05:27:54.011Z,53.57
2022-11-30T05:30:22.040Z,52.99
2022-11-30T05:32:49.982Z,53.42
2022-11-30T05:35:18.361Z,54.78
2022-11-30T05:37:46.312Z,53.73
2022-11-30T05:40:14.390Z,53.41
2022-11-30T05:42:42.705Z,54.23
2022-11-30T05:45:11.242Z,53.36
2022-11-30T05:47:39.202Z,53.74
2022-11-30T05:50:08.093Z,53.80
2022-11-30T05:52:35.994Z,52.60
2022-11-30T05:55:04.143Z,53.24
2022-11-30T05:57:36.858Z,53.03
2022-11-30T06:00:06.411Z,54.45
2022-11-30T06:02:39.510Z,54.38
2022-11-30T06:05:08.732Z,53.61
2022-11-30T06:07:36.853Z,54.44
2022-11-30T06:10:05.434Z,56.14
2022-11-30T06:12:33.733Z,53.88
2022-11-30T06:15:01.722Z,55.74
2022-11-30T06:17:29.676Z,54.70
2022-11-30T06:19:58.043Z,54.50
2022-11-30T06:22:26.082Z,54.31
2022-11-30T06:24:54.025Z,53.17
2022-11-30T06:27:22.341Z,53.34
2022-11-30T06:29:50.463Z,53.98
2022-11-30T06:32:18.461Z,53.93
2022-11-30T06:34:47.039Z,53.65
2022-11-30T06:37:15.388Z,53.77
2022-11-30T06:40:05.573Z,53.70
2022-11-30T06:42:32.405Z,52.95
2022-11-30T06:45:00.440Z,53.70
2022-11-30T06:47:28.584Z,54.21
2022-11-30T06:49:56.857Z,53.66
2022-11-30T06:52:24.832Z,53.83
2022-11-30T06:54:52.762Z,53.12
2022-11-30T06:57:21.582Z,53.71
2022-11-30T06:59:49.473Z,53.39
2022-11-30T07:02:18.509Z,54.15
2022-11-30T07:04:47.470Z,53.54
2022-11-30T07:07:16.225Z,54.54
2022-11-30T07:09:44.194Z,53.32
2022-11-30T07:12:12.851Z,55.02
2022-11-30T07:14:40.801Z,54.03
2022-11-30T07:17:08.833Z,53.87
2022-11-30T07:19:37.237Z,55.81
2022-11-30T07:22:05.231Z,54.33
2022-11-30T07:24:51.910Z,55.71
2022-11-30T07:29:51.746Z,54.94
2022-11-30T07:32:20.132Z,53.58
2022-11-30T07:34:48.737Z,54.30
2022-11-30T07:37:16.715Z,54.71
2022-11-30T07:39:44.896Z,54.95
2022-11-30T07:42:12.733Z,52.44
2022-11-30T07:44:41.601Z,54.32
2022-11-30T07:47:09.839Z,56.22
2022-11-30T07:49:39.231Z,54.93
2022-11-30T07:52:07.339Z,55.31
2022-11-30T07:54:35.750Z,53.75
2022-11-30T07:57:03.778Z,55.26
2022-11-30T07:59:31.683Z,54.32
2022-11-30T08:02:00.957Z,56.65
2022-11-30T08:04:29.621Z,53.70
2022-11-30T08:06:57.527Z,53.71
2022-11-30T08:09:25.278Z,52.80
2022-11-30T08:11:53.708Z,52.88
2022-11-30T08:14:21.579Z,54.09
2022-11-30T08:16:49.631Z,54.89
2022-11-30T08:19:17.879Z,53.14
2022-11-30T08:21:45.830Z,53.06
2022-11-30T08:24:14.356Z,51.07
2022-11-30T08:26:44.149Z,51.61
2022-11-30T08:29:12.130Z,53.05
2022-11-30T08:31:40.179Z,52.98
2022-11-30T08:34:11.241Z,52.73
2022-11-30T08:36:39.852Z,50.79
2022-11-30T08:39:09.375Z,51.42
2022-11-30T08:41:39.298Z,56.07
2022-11-30T08:44:07.526Z,53.70
2022-11-30T08:46:50.881Z,51.01
2022-11-30T08:49:23.792Z,52.65
2022-11-30T08:52:16.381Z,52.89
2022-11-30T08:54:47.603Z,50.33
2022-11-30T08:57:21.790Z,49.67
2022-11-30T08:59:50.262Z,48.85
2022-11-30T09:02:19.375Z,48.94
2022-11-30T09:04:49.594Z,50.76
2022-11-30T09:07:18.478Z,48.46
2022-11-30T09:09:46.560Z,48.79
2022-11-30T09:12:14.699Z,49.47
2022-11-30T09:14:43.220Z,48.70
2022-11-30T09:17:11.220Z,48.38
2022-11-30T09:19:40.154Z,49.35
2022-11-30T09:22:08.451Z,48.85
2022-11-30T09:24:38.321Z,50.40
2022-11-30T09:27:06.330Z,48.60
2022-11-30T09:29:34.589Z,49.22
2022-11-30T09:32:02.541Z,48.43
2022-11-30T09:34:30.589Z,49.34
2022-11-30T09:36:58.806Z,50.37
2022-11-30T09:39:26.930Z,49.52
2022-11-30T09:42:19.385Z,49.95
2022-11-30T09:45:02.826Z,47.73
2022-11-30T09:48:07.208Z,48.05
2022-11-30T09:50:43.459Z,48.77
2022-11-30T09:53:24.666Z,48.56
2022-11-30T09:55:59.552Z,48.26
2022-11-30T09:58:45.401Z,49.05
2022-11-30T10:01:19.383Z,48.87
2022-11-30T10:03:48.640Z,49.69
2022-11-30T10:06:34.945Z,48.73
2022-11-30T10:09:39.580Z,49.69
2022-11-30T10:12:14.994Z,49.10
2022-11-30T10:15:00.589Z,49.80
2022-11-30T10:18:07.030Z,48.90
2022-11-30T10:20:47.571Z,49.72
2022-11-30T10:23:33.601Z,49.81
2022-11-30T10:26:12.600Z,49.67
2022-11-30T10:28:52.839Z,48.52
2022-11-30T10:31:36.192Z,50.23
2022-11-30T10:34:22.751Z,48.31
2022-11-30T10:37:15.773Z,48.25
2022-11-30T10:40:02.579Z,48.36
2022-11-30T10:42:48.251Z,49.79
2022-11-30T10:45:23.929Z,49.14
2022-11-30T10:48:07.041Z,48.10
2022-11-30T10:50:35.021Z,48.43
2022-11-30T10:53:03.443Z,50.80
2022-11-30T10:55:35.921Z,48.68
2022-11-30T10:58:21.908Z,48.96
2022-11-30T11:01:26.499Z,48.98
2022-11-30T11:04:12.994Z,52.04
2022-11-30T11:06:46.821Z,49.73
2022-11-30T11:09:27.632Z,48.07
2022-11-30T11:11:58.170Z,47.92
2022-11-30T11:14:29.724Z,49.14
2022-11-30T11:17:26.980Z,47.93
2022-11-30T11:19:55.253Z,48.46
2022-11-30T11:22:25.450Z,48.77
2022-11-30T11:25:10.638Z,49.66
2022-11-30T11:27:44.718Z,49.86
2022-11-30T11:30:19.201Z,51.06
2022-11-30T11:33:16.340Z,49.15
2022-11-30T11:35:52.690Z,48.62
2022-11-30T11:38:53.680Z,49.19
2022-11-30T11:41:35.015Z,50.67
2022-11-30T11:44:08.201Z,51.05
2022-11-30T11:46:54.703Z,49.46
2022-11-30T11:49:29.279Z,49.06
2022-11-30T11:52:06.363Z,51.03
2022-11-30T11:54:57.141Z,48.85
2022-11-30T11:57:55.458Z,49.22
2022-11-30T12:00:25.521Z,48.81
2022-11-30T12:03:14.780Z,49.79
2022-11-30T12:06:04.365Z,50.73
2022-11-30T12:08:35.869Z,49.07
2022-11-30T12:11:18.059Z,49.12
2022-11-30T12:13:47.270Z,49.12
2022-11-30T12:16:30.813Z,51.55
2022-11-30T12:19:15.980Z,51.36
2022-11-30T12:21:46.891Z,51.12
2022-11-30T12:24:48.720Z,51.52
2022-11-30T12:27:36.277Z,52.29
2022-11-30T12:30:16.329Z,52.13
2022-11-30T12:33:04.074Z,51.50
2022-11-30T12:35:51.531Z,52.11
2022-11-30T12:38:27.260Z,52.70
2022-11-30T12:41:04.801Z,51.90
2022-11-30T12:44:04.411Z,51.79
2022-11-30T12:47:01.141Z,50.98
2022-11-30T12:49:53.989Z,51.19
2022-11-30T12:52:29.050Z,51.43
2022-11-30T12:55:17.319Z,53.54
2022-11-30T12:58:07.064Z,52.29
2022-11-30T13:00:44.820Z,52.05
2022-11-30T13:03:30.528Z,53.49
2022-11-30T13:06:01.246Z,51.13
2022-11-30T13:08:43.598Z,51.59
2022-11-30T13:11:37.831Z,51.01
2022-11-30T13:14:26.298Z,51.86
2022-11-30T13:17:06.117Z,51.82
2022-11-30T13:19:46.980Z,53.75
2022-11-30T13:22:41.407Z,53.61
2022-11-30T13:26:05.654Z,54.39
2022-11-30T13:28:41.222Z,54.32
2022-11-30T13:31:17.672Z,53.62
2022-11-30T13:33:50.019Z,53.02
2022-11-30T13:36:25.080Z,54.29
2022-11-30T13:39:15.479Z,52.55
2022-11-30T13:41:49.600Z,53.58
2022-11-30T13:44:36.121Z,52.41
2022-11-30T13:47:31.621Z,50.80
2022-11-30T13:50:01.952Z,50.63
2022-11-30T13:52:58.677Z,51.30
2022-11-30T13:55:41.832Z,53.97
2022-11-30T13:58:12.521Z,52.14
2022-11-30T14:00:40.871Z,53.34
2022-11-30T14:03:21.297Z,51.93
2022-11-30T14:05:59.869Z,51.32
2022-11-30T14:08:35.504Z,52.73
2022-11-30T14:11:39.171Z,51.37
2022-11-30T14:14:47.399Z,52.74
2022-11-30T14:17:21.657Z,51.61
2022-11-30T14:19:56.280Z,51.10
2022-11-30T14:22:25.780Z,52.00
2022-11-30T14:24:54.541Z,53.46
2022-11-30T14:27:28.002Z,51.38
2022-11-30T14:30:01.509Z,53.17
2022-11-30T14:32:41.020Z,51.65
2022-11-30T14:35:14.991Z,51.48
2022-11-30T14:37:52.182Z,52.54
2022-11-30T14:40:22.392Z,51.49
2022-11-30T14:43:01.661Z,50.91
2022-11-30T14:45:32.496Z,52.21
2022-11-30T14:48:15.119Z,50.08
2022-11-30T14:50:45.890Z,50.63
2022-11-30T14:53:53.481Z,51.36
2022-11-30T14:57:00.120Z,51.77
2022-11-30T14:59:49.851Z,52.47
2022-11-30T15:02:26.864Z,53.48
2022-11-30T15:04:54.779Z,52.94
2022-11-30T15:07:24.263Z,52.77
2022-11-30T15:09:58.319Z,52.56
2022-11-30T15:12:26.699Z,53.74
2022-11-30T15:15:18.903Z,52.75
2022-11-30T15:17:48.780Z,52.43
2022-11-30T15:20:44.708Z,50.75
2022-11-30T15:23:16.420Z,51.81
2022-11-30T15:25:51.008Z,52.96
2022-11-30T15:28:23.197Z,52.69
2022-11-30T15:30:55.109Z,52.57
2022-11-30T15:33:24.918Z,51.65
2022-11-30T15:36:18.835Z,50.42
2022-11-30T15:38:51.578Z,51.66
2022-11-30T15:41:22.677Z,52.70
2022-11-30T15:43:54.789Z,50.15
2022-11-30T15:46:41.401Z,50.38
2022-11-30T15:49:26.049Z,49.21
2022-11-30T15:52:04.973Z,53.01
2022-11-30T15:54:44.609Z,50.17
2022-11-30T15:57:12.908Z,50.00
2022-11-30T15:59:41.394Z,51.23
2022-11-30T16:02:44.681Z,51.62
2022-11-30T16:05:14.737Z,50.07
2022-11-30T16:08:01.611Z,50.72
2022-11-30T16:10:39.528Z,50.67
2022-11-30T16:13:07.439Z,52.18
2022-11-30T16:15:36.948Z,52.00
2022-11-30T16:18:07.950Z,50.58
2022-11-30T16:20:36.316Z,49.42
2022-11-30T16:23:06.110Z,50.71
2022-11-30T16:25:34.798Z,50.42
2022-11-30T16:28:03.350Z,51.73
2022-11-30T16:30:32.280Z,49.95
2022-11-30T16:33:00.240Z,50.30
2022-11-30T16:35:35.798Z,52.14
2022-11-30T16:38:04.664Z,49.72
2022-11-30T16:40:38.547Z,48.93
2022-11-30T16:43:07.281Z,47.84
2022-11-30T16:45:37.512Z,49.24
2022-11-30T16:48:06.274Z,49.38
2022-11-30T16:50:34.995Z,48.58
2022-11-30T16:53:04.327Z,49.10
2022-11-30T16:55:35.228Z,49.05
2022-11-30T16:58:03.795Z,47.97
2022-11-30T17:00:32.488Z,47.45
2022-11-30T17:03:05.975Z,48.69
2022-11-30T17:05:35.039Z,49.02
2022-11-30T17:08:03.327Z,52.14
2022-11-30T17:10:31.609Z,50.70
2022-11-30T17:12:59.940Z,50.54
2022-11-30T17:15:27.922Z,50.29
2022-11-30T17:17:59.373Z,51.29
2022-11-30T17:20:28.171Z,50.44
2022-11-30T17:22:56.143Z,50.62
2022-11-30T17:25:24.830Z,49.78
2022-11-30T17:27:53.249Z,52.39
2022-11-30T17:30:22.152Z,52.12
2022-11-30T17:32:51.114Z,54.19
2022-11-30T17:35:19.828Z,52.85
2022-11-30T17:37:47.938Z,54.20
2022-11-30T17:40:16.332Z,58.14
2022-11-30T17:42:44.669Z,59.22
2022-11-30T17:45:12.780Z,58.73
2022-11-30T17:47:40.882Z,59.98
2022-11-30T17:50:09.840Z,62.06
2022-11-30T17:52:37.858Z,60.47
2022-11-30T17:55:06.335Z,58.55
2022-11-30T17:57:34.653Z,61.21
2022-11-30T18:00:03.041Z,58.78
2022-11-30T18:02:32.833Z,62.21
2022-11-30T18:05:01.122Z,58.81
2022-11-30T18:07:29.096Z,62.58
2022-11-30T18:09:58.108Z,62.41
2022-11-30T18:12:26.318Z,63.61
2022-11-30T18:14:54.109Z,62.42
2022-11-30T18:17:22.059Z,58.76
2022-11-30T18:19:50.610Z,60.16
2022-11-30T18:22:18.370Z,62.45
2022-11-30T18:24:46.474Z,59.91
2022-11-30T18:27:15.046Z,58.18
2022-11-30T18:29:42.897Z,59.17
2022-11-30T18:32:10.819Z,58.74
2022-11-30T18:34:38.999Z,56.55
2022-11-30T18:37:06.928Z,58.20
2022-11-30T18:39:34.755Z,58.88
2022-11-30T18:42:02.980Z,59.61
2022-11-30T18:44:30.819Z,62.89
2022-11-30T18:46:58.679Z,62.44
2022-11-30T18:49:27.092Z,58.80
2022-11-30T18:51:55.004Z,60.80
2022-11-30T18:54:22.929Z,62.79
2022-11-30T18:56:51.149Z,61.74
2022-11-30T18:59:19.109Z,60.53
2022-11-30T19:01:47.080Z,60.00
2022-11-30T19:04:15.432Z,59.90
2022-11-30T19:06:43.746Z,60.24
2022-11-30T19:09:13.870Z,59.27
2022-11-30T19:11:43.163Z,60.40
2022-11-30T19:14:13.860Z,66.39
2022-11-30T19:16:42.744Z,62.62
2022-11-30T19:19:14.021Z,60.46
2022-11-30T19:21:44.508Z,60.59
2022-11-30T19:24:12.373Z,59.80
2022-11-30T19:26:40.491Z,60.16
2022-11-30T19:29:11.091Z,60.07
2022-11-30T19:31:38.968Z,60.70
2022-11-30T19:34:12.501Z,60.13
2022-11-30T19:36:41.916Z,59.79
2022-11-30T19:39:10.180Z,61.95
2022-11-30T19:41:37.930Z,59.76
2022-11-30T19:44:06.068Z,61.26
2022-11-30T19:46:34.850Z,60.98
2022-11-30T19:49:03.366Z,60.75
2022-11-30T19:51:31.827Z,62.46
2022-11-30T19:54:01.608Z,62.25
2022-11-30T19:56:31.623Z,61.13
2022-11-30T19:59:05.193Z,62.61
2022-11-30T20:01:34.742Z,65.32
2022-11-30T20:04:03.679Z,64.25
2022-11-30T20:06:34.501Z,62.82
2022-11-30T20:09:04.198Z,62.78
2022-11-30T20:11:33.170Z,61.95
2022-11-30T20:14:01.110Z,62.40
2022-11-30T20:16:29.297Z,62.79
2022-11-30T20:19:01.006Z,64.67
2022-11-30T20:21:31.382Z,64.38
2022-11-30T20:24:01.774Z,62.34
2022-11-30T20:26:32.078Z,63.40
2022-11-30T20:29:01.830Z,63.32
2022-11-30T20:31:31.144Z,62.18
2022-11-30T20:33:59.619Z,61.84
2022-11-30T20:36:28.039Z,64.26
2022-11-30T20:38:58.137Z,64.23
2022-11-30T20:41:26.492Z,63.59
2022-11-30T20:43:55.087Z,63.76
2022-11-30T20:46:24.596Z,65.77
2022-11-30T20:48:52.599Z,64.21
2022-11-30T20:51:32.022Z,62.41
2022-11-30T20:54:02.141Z,66.65
2022-11-30T20:56:30.423Z,64.78
2022-11-30T20:59:01.570Z,65.18
2022-11-30T21:01:29.583Z,65.06
2022-11-30T21:03:59.696Z,62.57
2022-11-30T21:06:31.434Z,63.34
2022-11-30T21:09:00.173Z,65.06
2022-11-30T21:11:28.873Z,66.53
2022-11-30T21:13:57.679Z,64.75
2022-11-30T21:16:29.100Z,62.98
2022-11-30T21:18:59.182Z,61.91
2022-11-30T21:21:33.276Z,63.37
2022-11-30T21:24:03.683Z,63.96
2022-11-30T21:26:34.347Z,62.51
2022-11-30T21:29:07.509Z,64.71
2022-11-30T21:31:35.881Z,65.23
2022-11-30T21:34:05.122Z,65.60
2022-11-30T21:36:33.206Z,64.62
2022-11-30T21:39:05.990Z,64.11
2022-11-30T21:41:35.651Z,63.18
2022-11-30T21:44:06.059Z,64.06
2022-11-30T21:46:34.320Z,62.49
2022-11-30T21:49:02.479Z,61.45
2022-11-30T21:51:32.008Z,60.54
2022-11-30T21:54:02.500Z,59.70
2022-11-30T21:56:33.513Z,60.86
2022-11-30T21:59:01.789Z,60.33
2022-11-30T22:01:35.109Z,59.99
2022-11-30T22:04:04.624Z,60.12
2022-11-30T22:06:34.079Z,59.31
2022-11-30T22:09:08.084Z,59.44
2022-11-30T22:11:39.239Z,58.34
2022-11-30T22:14:10.681Z,58.11
2022-11-30T22:16:39.080Z,59.38
2022-11-30T22:19:07.490Z,58.39
2022-11-30T22:21:35.581Z,58.36
2022-11-30T22:24:09.728Z,57.81
2022-11-30T22:26:42.788Z,57.66
2022-11-30T22:29:16.399Z,57.82
2022-11-30T22:31:46.168Z,57.72
2022-11-30T22:34:15.028Z,58.92
2022-11-30T22:36:44.580Z,57.83
2022-11-30T22:39:12.397Z,60.20
2022-11-30T22:41:42.028Z,58.53
2022-11-30T22:44:14.766Z,58.66
2022-11-30T22:46:44.346Z,59.13
2022-11-30T22:49:19.908Z,58.32
2022-11-30T22:51:49.624Z,57.61
2022-11-30T22:54:17.692Z,59.36
2022-11-30T22:56:46.822Z,59.39
2022-11-30T22:59:16.055Z,59.46
2022-11-30T23:01:46.343Z,60.51
2022-11-30T23:04:16.600Z,59.10
2022-11-30T23:06:45.580Z,59.37
2022-11-30T23:09:15.883Z,59.13
2022-11-30T23:11:44.290Z,58.23
2022-11-30T23:14:12.400Z,59.89
2022-11-30T23:16:40.503Z,60.50
2022-11-30T23:19:10.271Z,59.63
2022-11-30T23:21:41.826Z,61.36
2022-11-30T23:24:15.217Z,61.38
2022-11-30T23:26:43.485Z,60.55
2022-11-30T23:29:13.900Z,60.49
2022-11-30T23:31:42.869Z,61.98
2022-11-30T23:34:14.290Z,61.04
2022-11-30T23:36:42.574Z,62.09
2022-11-30T23:39:15.610Z,59.60
2022-11-30T23:41:43.800Z,59.60
2022-11-30T23:44:12.139Z,60.26
2022-11-30T23:46:40.333Z,59.58
2022-11-30T23:49:08.628Z,58.17
2022-11-30T23:51:36.549Z,58.75
2022-11-30T23:54:04.951Z,59.54
2022-11-30T23:56:33.081Z,59.21
2022-11-30T23:59:01.040Z,59.07
